Time,TemperatureF,DewpointF,PressureIn,WindDirection,WindDirectionDegrees,WindSpeedMPH,WindSpeedGustMPH,Humidity,HourlyPrecipIn,Conditions,Clouds,dailyrainin,SolarRadiationWatts/m^2,SoftwareType,DateUTC
2013-05-08 00:02:00,57.0,52.0,-100.00,ESE,122,6.0,13.0,82,0.00,,,0.00,0.000000,,2013-05-08 04:02:00,
2013-05-08 00:33:00,56.0,50.0,-100.00,ESE,121,8.0,16.0,81,0.00,,,0.00,0.000000,,2013-05-08 04:33:00,
2013-05-08 00:43:00,56.0,50.0,-100.00,ESE,121,8.0,16.0,81,0.00,,,0.00,0.000000,,2013-05-08 04:43:00,
2013-05-08 00:53:00,56.0,50.0,-100.00,ESE,121,8.0,16.0,81,0.00,,,0.00,0.000000,,2013-05-08 04:53:00,
2013-05-08 01:02:00,56.0,50.0,-100.00,ESE,121,8.0,16.0,81,0.00,,,0.00,0.000000,,2013-05-08 05:02:00,
2013-05-08 01:32:00,56.0,51.0,-100.00,SE,129,8.0,16.0,82,0.00,,,0.00,0.000000,,2013-05-08 05:32:00,
2013-05-08 01:42:00,56.0,51.0,-100.00,SE,129,8.0,16.0,82,0.00,,,0.00,0.000000,,2013-05-08 05:42:00,
2013-05-08 01:52:00,56.0,51.0,-100.00,SE,129,8.0,16.0,82,0.00,,,0.00,0.000000,,2013-05-08 05:52:00,
2013-05-08 02:02:00,56.0,51.0,-100.00,SE,129,8.0,16.0,82,0.00,,,0.00,0.000000,,2013-05-08 06:02:00,
2013-05-08 02:32:00,56.0,52.0,-100.00,SE,128,8.0,14.0,85,0.00,,,0.00,0.000000,,2013-05-08 06:32:00,
2013-05-08 02:42:00,56.0,52.0,-100.00,SE,128,8.0,14.0,85,0.00,,,0.00,0.000000,,2013-05-08 06:42:00,
2013-05-08 02:52:00,56.0,52.0,-100.00,SE,128,8.0,14.0,85,0.00,,,0.00,0.000000,,2013-05-08 06:52:00,
2013-05-08 03:02:00,56.0,52.0,-100.00,SE,128,8.0,14.0,85,0.00,,,0.00,0.000000,,2013-05-08 07:02:00,
2013-05-08 03:32:00,54.0,53.0,-100.00,SE,127,8.0,21.0,95,0.01,,,0.01,0.000000,,2013-05-08 07:32:00,
2013-05-08 03:42:00,54.0,53.0,-100.00,SE,127,8.0,21.0,95,0.01,,,0.01,0.000000,,2013-05-08 07:42:00,
2013-05-08 03:52:00,54.0,53.0,-100.00,SE,127,8.0,21.0,95,0.01,,,0.01,0.000000,,2013-05-08 07:52:00,
2013-05-08 04:02:00,54.0,53.0,-100.00,SE,127,8.0,21.0,95,0.01,,,0.01,0.000000,,2013-05-08 08:02:00,
2013-05-08 04:22:00,54.0,54.0,-100.00,SE,136,6.0,15.0,100,0.02,,,0.03,0.000000,,2013-05-08 08:22:00,
2013-05-08 04:32:00,54.0,54.0,-100.00,SE,136,6.0,15.0,100,0.02,,,0.03,0.000000,,2013-05-08 08:32:00,
2013-05-08 04:43:00,54.0,54.0,-100.00,SE,136,6.0,15.0,100,0.02,,,0.03,0.000000,,2013-05-08 08:43:00,
2013-05-08 04:52:00,54.0,54.0,-100.00,SE,136,6.0,15.0,100,0.02,,,0.03,0.000000,,2013-05-08 08:52:00,
2013-05-08 05:02:00,54.0,54.0,-100.00,SE,136,6.0,15.0,100,0.02,,,0.03,0.000000,,2013-05-08 09:02:00,
2013-05-08 05:32:00,53.0,53.0,-100.00,ESE,116,7.0,14.0,100,0.07,,,0.10,0.000000,,2013-05-08 09:32:00,
2013-05-08 05:42:00,53.0,53.0,-100.00,ESE,116,7.0,14.0,100,0.07,,,0.10,0.000000,,2013-05-08 09:42:00,
2013-05-08 05:53:00,53.0,53.0,-100.00,ESE,116,7.0,14.0,100,0.07,,,0.10,0.000000,,2013-05-08 09:53:00,
2013-05-08 06:02:00,53.0,53.0,-100.00,ESE,116,7.0,14.0,100,0.07,,,0.10,0.000000,,2013-05-08 10:02:00,
2013-05-08 06:33:00,53.0,53.0,-100.00,ESE,107,6.0,11.0,100,0.06,,,0.16,1.000000,,2013-05-08 10:33:00,
2013-05-08 06:42:00,53.0,53.0,-100.00,ESE,107,6.0,11.0,100,0.06,,,0.16,1.000000,,2013-05-08 10:42:00,
2013-05-08 06:53:00,53.0,53.0,-100.00,ESE,107,6.0,11.0,100,0.06,,,0.16,1.000000,,2013-05-08 10:53:00,
2013-05-08 07:02:00,53.0,53.0,-100.00,ESE,107,6.0,11.0,100,0.06,,,0.16,1.000000,,2013-05-08 11:02:00,
2013-05-08 07:33:00,53.0,53.0,-100.00,SE,125,6.0,11.0,100,0.00,,,0.16,14.000000,,2013-05-08 11:33:00,
2013-05-08 07:42:00,53.0,53.0,-100.00,SE,125,6.0,11.0,100,0.00,,,0.16,14.000000,,2013-05-08 11:42:00,
2013-05-08 07:52:00,53.0,53.0,-100.00,SE,125,6.0,11.0,100,0.00,,,0.16,14.000000,,2013-05-08 11:52:00,
2013-05-08 08:02:00,53.0,53.0,-100.00,SE,125,6.0,11.0,100,0.00,,,0.16,14.000000,,2013-05-08 12:02:00,
2013-05-08 09:32:00,56.0,56.0,-100.00,SE,134,6.0,11.0,99,-99.99,,,0.16,152.000000,,2013-05-08 13:32:00,
2013-05-08 09:42:00,56.0,56.0,-100.00,SE,134,6.0,11.0,99,-99.99,,,0.16,152.000000,,2013-05-08 13:42:00,
2013-05-08 09:52:00,56.0,56.0,-100.00,SE,134,6.0,11.0,99,-99.99,,,0.16,152.000000,,2013-05-08 13:52:00,
2013-05-08 10:02:00,56.0,56.0,-100.00,SE,134,6.0,11.0,99,-99.99,,,0.16,152.000000,,2013-05-08 14:02:00,
2013-05-08 10:32:00,60.0,57.0,-100.00,SSE,151,4.0,10.0,89,0.00,,,0.16,307.000000,,2013-05-08 14:32:00,
2013-05-08 10:42:00,60.0,57.0,-100.00,SSE,151,4.0,10.0,89,0.00,,,0.16,307.000000,,2013-05-08 14:42:00,
2013-05-08 10:52:00,60.0,57.0,-100.00,SSE,151,4.0,10.0,89,0.00,,,0.16,307.000000,,2013-05-08 14:52:00,
2013-05-08 11:02:00,60.0,57.0,-100.00,SSE,151,4.0,10.0,89,0.00,,,0.16,307.000000,,2013-05-08 15:02:00,
2013-05-08 11:33:00,60.0,52.0,-100.00,SE,136,5.0,9.0,75,0.00,,,0.16,321.000000,,2013-05-08 15:33:00,
2013-05-08 11:42:00,60.0,52.0,-100.00,SE,136,5.0,9.0,75,0.00,,,0.16,321.000000,,2013-05-08 15:42:00,
2013-05-08 11:53:00,60.0,52.0,-100.00,SE,136,5.0,9.0,75,0.00,,,0.16,321.000000,,2013-05-08 15:53:00,
2013-05-08 12:03:00,60.0,52.0,-100.00,SE,136,5.0,9.0,75,0.00,,,0.16,321.000000,,2013-05-08 16:03:00,
2013-05-08 12:33:00,57.0,53.0,-100.00,SSE,153,3.0,9.0,85,0.01,,,-99.99,147.000000,,2013-05-08 16:33:00,
2013-05-08 12:42:00,57.0,53.0,-100.00,SSE,153,3.0,9.0,85,0.01,,,-99.99,147.000000,,2013-05-08 16:42:00,
2013-05-08 12:52:00,57.0,53.0,-100.00,SSE,153,3.0,9.0,85,0.01,,,-99.99,147.000000,,2013-05-08 16:52:00,
2013-05-08 13:02:00,57.0,53.0,-100.00,SSE,153,3.0,9.0,85,0.01,,,-99.99,147.000000,,2013-05-08 17:02:00,
2013-05-08 13:52:00,55.0,54.0,-100.00,East,95,4.0,8.0,96,0.07,,,-99.99,66.000000,,2013-05-08 17:52:00,
2013-05-08 14:02:00,55.0,54.0,-100.00,East,95,4.0,8.0,96,0.07,,,-99.99,66.000000,,2013-05-08 18:02:00,
2013-05-08 14:32:00,57.0,56.0,-100.00,ENE,75,6.0,11.0,96,0.01,,,0.25,265.000000,,2013-05-08 18:32:00,
2013-05-08 14:42:00,57.0,56.0,-100.00,ENE,75,6.0,11.0,96,0.01,,,0.25,265.000000,,2013-05-08 18:42:00,
2013-05-08 14:52:00,57.0,56.0,-100.00,ENE,75,6.0,11.0,96,0.01,,,0.25,265.000000,,2013-05-08 18:52:00,
2013-05-08 15:01:00,57.0,56.0,-100.00,ENE,75,6.0,11.0,96,0.01,,,0.25,265.000000,,2013-05-08 19:01:00,
2013-05-08 15:32:00,61.0,55.0,-100.00,ENE,62,6.0,11.0,80,0.00,,,0.25,384.000000,,2013-05-08 19:32:00,
2013-05-08 15:42:00,61.0,55.0,-100.00,ENE,62,6.0,11.0,80,0.00,,,0.25,384.000000,,2013-05-08 19:42:00,
2013-05-08 15:52:00,61.0,55.0,-100.00,ENE,62,6.0,11.0,80,0.00,,,0.25,384.000000,,2013-05-08 19:52:00,
2013-05-08 16:02:00,61.0,55.0,-100.00,ENE,62,6.0,11.0,80,0.00,,,0.25,384.000000,,2013-05-08 20:02:00,
2013-05-08 16:32:00,62.0,52.0,-100.00,SE,139,7.0,12.0,69,0.00,,,0.25,560.000000,,2013-05-08 20:32:00,
2013-05-08 16:42:00,62.0,52.0,-100.00,SE,139,7.0,12.0,69,0.00,,,0.25,560.000000,,2013-05-08 20:42:00,
2013-05-08 16:52:00,62.0,52.0,-100.00,SE,139,7.0,12.0,69,0.00,,,0.25,560.000000,,2013-05-08 20:52:00,
2013-05-08 17:02:00,62.0,52.0,-100.00,SE,139,7.0,12.0,69,0.00,,,0.25,560.000000,,2013-05-08 21:02:00,
2013-05-08 17:33:00,60.0,51.0,-100.00,ESE,102,7.0,11.0,71,0.00,,,0.25,202.000000,,2013-05-08 21:33:00,
2013-05-08 17:43:00,60.0,51.0,-100.00,ESE,102,7.0,11.0,71,0.00,,,0.25,202.000000,,2013-05-08 21:43:00,
2013-05-08 17:53:00,60.0,51.0,-100.00,ESE,102,7.0,11.0,71,0.00,,,0.25,202.000000,,2013-05-08 21:53:00,
2013-05-08 18:03:00,60.0,51.0,-100.00,ESE,102,7.0,11.0,71,0.00,,,0.25,202.000000,,2013-05-08 22:03:00,
2013-05-08 18:33:00,64.0,52.0,-100.00,ENE,78,4.0,9.0,64,0.00,,,0.25,281.000000,,2013-05-08 22:33:00,
2013-05-08 18:42:00,64.0,52.0,-100.00,ENE,78,4.0,9.0,64,0.00,,,0.25,281.000000,,2013-05-08 22:42:00,
2013-05-08 18:53:00,64.0,52.0,-100.00,ENE,78,4.0,9.0,64,0.00,,,0.25,281.000000,,2013-05-08 22:53:00,
2013-05-08 19:02:00,64.0,52.0,-100.00,ENE,78,4.0,9.0,64,0.00,,,0.25,281.000000,,2013-05-08 23:02:00,
2013-05-08 19:33:00,63.0,51.0,-100.00,East,84,3.0,8.0,64,0.00,,,0.25,187.000000,,2013-05-08 23:33:00,
2013-05-08 19:42:00,63.0,51.0,-100.00,East,84,3.0,8.0,64,0.00,,,0.25,187.000000,,2013-05-08 23:42:00,
2013-05-08 19:53:00,63.0,51.0,-100.00,East,84,3.0,8.0,64,0.00,,,0.25,187.000000,,2013-05-08 23:53:00,
2013-05-08 20:02:00,63.0,51.0,-100.00,East,84,3.0,8.0,64,0.00,,,0.25,187.000000,,2013-05-09 00:02:00,
2013-05-08 21:32:00,54.0,50.0,-100.00,SE,142,3.0,9.0,86,-99.99,,,0.25,3.000000,,2013-05-09 01:32:00,
2013-05-08 21:42:00,54.0,50.0,-100.00,SE,142,3.0,9.0,86,-99.99,,,0.25,3.000000,,2013-05-09 01:42:00,
2013-05-08 21:53:00,54.0,50.0,-100.00,SE,142,3.0,9.0,86,-99.99,,,0.25,3.000000,,2013-05-09 01:53:00,
2013-05-08 22:02:00,54.0,50.0,-100.00,SE,142,3.0,9.0,86,-99.99,,,0.25,3.000000,,2013-05-09 02:02:00,
2013-05-08 22:33:00,53.0,50.0,-100.00,ESE,119,4.0,7.0,91,0.00,,,0.25,0.000000,,2013-05-09 02:33:00,
2013-05-08 22:42:00,53.0,50.0,-100.00,ESE,119,4.0,7.0,91,0.00,,,0.25,0.000000,,2013-05-09 02:42:00,
2013-05-08 22:52:00,53.0,50.0,-100.00,ESE,119,4.0,7.0,91,0.00,,,0.25,0.000000,,2013-05-09 02:52:00,
2013-05-08 23:02:00,53.0,50.0,-100.00,ESE,119,4.0,7.0,91,0.00,,,0.25,0.000000,,2013-05-09 03:02:00,
2013-05-08 23:33:00,53.0,51.0,-100.00,SE,127,4.0,7.0,94,0.00,,,0.25,0.000000,,2013-05-09 03:33:00,
2013-05-08 23:43:00,53.0,51.0,-100.00,SE,127,4.0,7.0,94,0.00,,,0.25,0.000000,,2013-05-09 03:43:00,
2013-05-08 23:53:00,53.0,51.0,-100.00,SE,127,4.0,7.0,94,0.00,,,0.25,0.000000,,2013-05-09 03:53:00,